createdAt,value
2023-01-05T00:01:23.055Z,101802.38
2023-01-05T00:06:23.564Z,101782.34
2023-01-05T00:11:40.751Z,101772.66
2023-01-05T00:16:52.724Z,101778.56
2023-01-05T00:22:05.153Z,101752.53
2023-01-05T00:26:59.021Z,101770.81
2023-01-05T00:31:53.170Z,101755.94
2023-01-05T00:36:47.872Z,101761.34
2023-01-05T00:41:40.734Z,101772.09
2023-01-05T00:46:34.256Z,101745.66
2023-01-05T00:51:27.478Z,101751.03
2023-01-05T00:56:20.486Z,101742.28
2023-01-05T01:01:14.895Z,101749.41
2023-01-05T01:06:08.281Z,101737.09
2023-01-05T01:11:06.291Z,101740.81
2023-01-05T01:15:58.537Z,101725.97
2023-01-05T01:20:52.122Z,101714.72
2023-01-05T01:25:45.789Z,101723.41
2023-01-05T01:30:39.919Z,101681.00
2023-01-05T01:35:33.933Z,101709.44
2023-01-05T01:40:27.178Z,101715.56
2023-01-05T01:45:22.473Z,101692.72
2023-01-05T01:50:23.348Z,101668.50
2023-01-05T01:55:20.200Z,101671.75
2023-01-05T02:00:15.318Z,101690.28
2023-01-05T02:05:13.732Z,101689.47
2023-01-05T02:10:08.338Z,101651.19
2023-01-05T02:15:30.225Z,101668.41
2023-01-05T02:21:00.117Z,101663.28
2023-01-05T02:26:13.140Z,101658.03
2023-01-05T02:31:25.610Z,101650.16
2023-01-05T02:36:33.445Z,101656.44
2023-01-05T02:41:34.700Z,101655.66
2023-01-05T02:46:30.453Z,101638.97
2023-01-05T02:51:31.280Z,101608.88
2023-01-05T02:56:32.264Z,101639.88
2023-01-05T03:01:50.293Z,101639.88
2023-01-05T03:07:00.482Z,101605.06
2023-01-05T03:12:39.255Z,101593.72
2023-01-05T03:17:40.836Z,101587.63
2023-01-05T03:22:56.105Z,101618.97
2023-01-05T03:28:08.158Z,101611.97
2023-01-05T03:33:42.209Z,101619.09
2023-01-05T03:38:46.146Z,101561.81
2023-01-05T03:43:41.406Z,101591.16
2023-01-05T03:48:35.279Z,101580.94
2023-01-05T03:53:28.979Z,101587.69
2023-01-05T03:58:22.474Z,101572.09
2023-01-05T04:03:16.855Z,101577.03
2023-01-05T04:08:10.079Z,101582.41
2023-01-05T04:13:04.170Z,101579.75
2023-01-05T04:17:59.208Z,101572.69
2023-01-05T04:22:52.828Z,101562.16
2023-01-05T04:27:48.291Z,101555.22
2023-01-05T04:32:43.163Z,101564.06
2023-01-05T04:37:40.143Z,101551.84
2023-01-05T04:42:35.145Z,101540.72
2023-01-05T04:47:28.860Z,101521.91
2023-01-05T04:52:25.997Z,101520.69
2023-01-05T04:57:19.839Z,101532.06
2023-01-05T05:02:14.951Z,101526.59
2023-01-05T05:07:10.506Z,101503.47
2023-01-05T05:12:04.818Z,101537.00
2023-01-05T05:17:01.133Z,101554.72
2023-01-05T05:21:56.618Z,101535.44
2023-01-05T05:26:53.487Z,101495.75
2023-01-05T05:31:46.721Z,101543.41
2023-01-05T05:36:40.723Z,101544.72
2023-01-05T05:41:33.415Z,101536.59
2023-01-05T05:46:27.647Z,101546.41
2023-01-05T05:51:21.160Z,101506.56
2023-01-05T05:56:14.573Z,101546.34
2023-01-05T06:01:07.799Z,101508.28
2023-01-05T06:06:03.987Z,101545.47
2023-01-05T06:10:58.506Z,101532.22
2023-01-05T06:15:52.228Z,101541.97
2023-01-05T06:20:46.003Z,101526.00
2023-01-05T06:25:39.273Z,101538.91
2023-01-05T06:30:32.947Z,101537.19
2023-01-05T06:35:27.284Z,101532.88
2023-01-05T06:40:21.164Z,101488.81
2023-01-05T06:45:15.889Z,101495.63
2023-01-05T06:50:10.854Z,101489.50
2023-01-05T06:55:12.115Z,101518.22
2023-01-05T07:00:09.213Z,101501.47
2023-01-05T07:05:02.827Z,101515.59
2023-01-05T07:09:56.146Z,101502.66
2023-01-05T07:14:52.984Z,101508.06
2023-01-05T07:19:51.393Z,101506.22
2023-01-05T07:24:44.604Z,101514.25
2023-01-05T07:29:38.457Z,101500.47
2023-01-05T07:34:32.074Z,101497.06
2023-01-05T07:39:25.552Z,101522.09
2023-01-05T07:44:18.955Z,101507.88
2023-01-05T07:49:12.584Z,101518.41
2023-01-05T07:54:06.067Z,101487.91
2023-01-05T07:59:00.570Z,101491.34
2023-01-05T08:03:54.134Z,101499.94
2023-01-05T08:08:48.118Z,101511.09
2023-01-05T08:13:59.977Z,101499.09
2023-01-05T08:18:53.241Z,101528.63
2023-01-05T08:23:46.320Z,101481.00
2023-01-05T08:28:39.786Z,101523.16
2023-01-05T08:33:33.401Z,101488.78
2023-01-05T08:38:27.122Z,101511.03
2023-01-05T08:43:20.844Z,101518.25
2023-01-05T08:48:14.377Z,101500.75
2023-01-05T08:53:07.660Z,101523.97
2023-01-05T08:58:01.787Z,101522.84
2023-01-05T09:02:56.197Z,101529.88
2023-01-05T09:07:49.398Z,101536.03
2023-01-05T09:12:43.328Z,101516.13
2023-01-05T09:17:37.768Z,101491.50
2023-01-05T09:22:36.578Z,101506.97
2023-01-05T09:27:30.477Z,101517.03
2023-01-05T09:32:24.835Z,101513.53
2023-01-05T09:37:18.914Z,101495.34
2023-01-05T09:42:18.401Z,101495.16
2023-01-05T09:47:43.752Z,101505.16
2023-01-05T09:52:41.964Z,101487.00
2023-01-05T09:57:35.261Z,101509.53
2023-01-05T10:02:34.542Z,101498.66
2023-01-05T10:07:43.843Z,101473.41
2023-01-05T10:13:00.381Z,101489.66
2023-01-05T10:17:53.993Z,101476.44
2023-01-05T10:22:57.387Z,101478.00
2023-01-05T10:28:02.577Z,101443.16
2023-01-05T10:33:27.846Z,101454.13
2023-01-05T10:39:04.888Z,101445.25
2023-01-05T10:44:12.689Z,101430.63
2023-01-05T10:49:07.911Z,101445.97
2023-01-05T10:54:03.984Z,101434.72
2023-01-05T10:59:15.854Z,101431.63
2023-01-05T11:04:35.836Z,101421.22
2023-01-05T11:09:29.961Z,101407.66
2023-01-05T11:14:25.633Z,101399.38
2023-01-05T11:19:26.504Z,101404.88
2023-01-05T11:24:25.323Z,101401.31
2023-01-05T11:29:19.740Z,101387.97
2023-01-05T11:34:28.120Z,101366.53
2023-01-05T11:39:29.568Z,101366.81
2023-01-05T11:44:23.564Z,101370.28
2023-01-05T11:49:20.190Z,101347.66
2023-01-05T11:54:37.193Z,101348.78
2023-01-05T11:59:31.048Z,101349.00
2023-01-05T12:04:47.194Z,101325.63
2023-01-05T12:09:45.579Z,101346.34
2023-01-05T12:14:47.397Z,101326.19
2023-01-05T12:20:02.671Z,101329.13
2023-01-05T12:25:17.448Z,101320.25
2023-01-05T12:36:00.790Z,101324.00
2023-01-05T12:41:09.500Z,101317.63
2023-01-05T12:46:14.174Z,101312.34
2023-01-05T12:51:33.118Z,101298.97
2023-01-05T12:56:44.046Z,101261.13
2023-01-05T13:01:44.829Z,101277.13
2023-01-05T13:06:43.635Z,101284.72
2023-01-05T13:11:44.243Z,101289.31
2023-01-05T13:16:47.664Z,101284.84
2023-01-05T13:21:43.661Z,101297.03
2023-01-05T13:26:38.372Z,101291.81
2023-01-05T13:32:18.034Z,101292.50
2023-01-05T13:37:20.790Z,101298.75
2023-01-05T13:42:24.878Z,101293.50
2023-01-05T13:47:56.465Z,101258.25
2023-01-05T13:52:56.276Z,101280.94
2023-01-05T13:57:50.428Z,101258.50
2023-01-05T14:02:47.405Z,101287.94
2023-01-05T14:07:41.998Z,101249.38
2023-01-05T14:12:57.978Z,101277.13
2023-01-05T14:18:02.967Z,101270.84
2023-01-05T14:22:56.855Z,101268.47
2023-01-05T14:28:19.175Z,101276.84
2023-01-05T14:33:12.502Z,101266.41
2023-01-05T14:38:16.434Z,101288.19
2023-01-05T14:43:31.931Z,101257.09
2023-01-05T14:48:32.126Z,101289.91
2023-01-05T14:53:38.603Z,101285.41
2023-01-05T14:58:37.553Z,101283.56
2023-01-05T15:03:51.049Z,101281.03
2023-01-05T15:09:05.456Z,101277.56
2023-01-05T15:14:50.111Z,101239.59
2023-01-05T15:19:46.098Z,101287.03
2023-01-05T15:24:54.253Z,101279.66
2023-01-05T15:30:14.004Z,101285.75
2023-01-05T15:35:24.407Z,101256.03
2023-01-05T15:40:23.464Z,101286.22
2023-01-05T15:45:40.307Z,101282.53
2023-01-05T15:50:46.814Z,101295.66
2023-01-05T15:55:44.976Z,101260.88
2023-01-05T16:00:38.682Z,101264.22
2023-01-05T16:05:36.090Z,101299.91
2023-01-05T16:10:43.118Z,101302.75
2023-01-05T16:15:37.482Z,101313.41
2023-01-05T16:20:32.015Z,101310.00
2023-01-05T16:25:28.080Z,101285.59
2023-01-05T16:30:31.745Z,101301.72
2023-01-05T16:35:45.434Z,101312.25
2023-01-05T16:40:47.819Z,101292.63
2023-01-05T16:45:41.403Z,101323.84
2023-01-05T16:50:36.869Z,101322.00
2023-01-05T16:55:30.395Z,101321.44
2023-01-05T17:00:26.691Z,101339.59
2023-01-05T17:05:25.266Z,101328.31
2023-01-05T17:10:22.759Z,101346.06
2023-01-05T17:15:26.132Z,101348.78
2023-01-05T17:20:20.141Z,101332.97
2023-01-05T17:25:14.581Z,101330.41
2023-01-05T17:30:27.942Z,101352.78
2023-01-05T17:35:21.911Z,101346.06
2023-01-05T17:40:22.337Z,101365.88
2023-01-05T17:45:17.434Z,101371.03
2023-01-05T17:55:24.172Z,101349.34
2023-01-05T18:00:22.040Z,101370.81
2023-01-05T18:05:16.527Z,101381.22
2023-01-05T18:10:13.921Z,101381.47
2023-01-05T18:15:10.258Z,101376.38
2023-01-05T18:20:04.524Z,101379.69
2023-01-05T18:24:58.314Z,101396.94
2023-01-05T18:29:51.951Z,101401.16
2023-01-05T18:34:45.687Z,101391.41
2023-01-05T18:39:39.822Z,101371.66
2023-01-05T18:44:33.775Z,101393.22
2023-01-05T18:49:28.620Z,101393.63
2023-01-05T18:54:22.365Z,101371.22
2023-01-05T18:59:16.260Z,101398.00
2023-01-05T19:04:11.888Z,101391.00
2023-01-05T19:09:06.511Z,101382.25
2023-01-05T19:14:01.556Z,101391.63
2023-01-05T19:18:57.263Z,101410.75
2023-01-05T19:23:56.974Z,101375.88
2023-01-05T19:28:55.179Z,101401.06
2023-01-05T19:33:48.239Z,101406.31
2023-01-05T19:38:43.591Z,101384.56
2023-01-05T19:43:37.264Z,101392.34
2023-01-05T19:48:34.754Z,101416.38
2023-01-05T19:53:28.326Z,101406.31
2023-01-05T19:58:21.572Z,101426.84
2023-01-05T20:03:16.212Z,101414.03
2023-01-05T20:08:16.685Z,101429.50
2023-01-05T20:13:10.958Z,101404.44
2023-01-05T20:18:05.290Z,101416.03
2023-01-05T20:22:59.304Z,101439.53
2023-01-05T20:27:52.867Z,101448.09
2023-01-05T20:32:53.869Z,101439.41
2023-01-05T20:37:47.183Z,101448.34
2023-01-05T20:42:47.530Z,101430.09
2023-01-05T20:47:47.484Z,101438.97
2023-01-05T20:52:41.764Z,101445.41
2023-01-05T20:57:36.636Z,101471.97
2023-01-05T21:02:30.826Z,101462.28
2023-01-05T21:07:24.437Z,101481.34
2023-01-05T21:12:17.617Z,101478.19
2023-01-05T21:17:12.373Z,101449.34
2023-01-05T21:22:05.096Z,101474.63
2023-01-05T21:26:58.796Z,101489.13
2023-01-05T21:31:56.240Z,101487.81
2023-01-05T21:36:49.825Z,101469.47
2023-01-05T21:42:01.743Z,101477.59
2023-01-05T21:46:55.250Z,101501.19
2023-01-05T21:52:07.919Z,101493.38
2023-01-05T21:57:01.849Z,101490.38
2023-01-05T22:01:55.086Z,101507.69
2023-01-05T22:06:49.393Z,101473.34
2023-01-05T22:11:43.276Z,101516.91
2023-01-05T22:16:36.897Z,101520.47
2023-01-05T22:21:31.163Z,101527.50
2023-01-05T22:26:25.645Z,101538.19
2023-01-05T22:31:21.235Z,101524.28
2023-01-05T22:36:20.460Z,101542.00
2023-01-05T22:41:16.261Z,101524.66
2023-01-05T22:46:13.365Z,101534.84
2023-01-05T22:51:10.188Z,101529.09
2023-01-05T22:56:04.175Z,101538.69
2023-01-05T23:01:07.383Z,101530.75
2023-01-05T23:06:00.469Z,101550.88
2023-01-05T23:11:26.146Z,101532.75
2023-01-05T23:16:19.621Z,101538.84
2023-01-05T23:21:15.786Z,101525.66
2023-01-05T23:26:10.000Z,101515.22
2023-01-05T23:31:03.764Z,101516.16
2023-01-05T23:35:57.038Z,101515.59
2023-01-05T23:41:10.919Z,101522.41
2023-01-05T23:46:11.385Z,101489.84
2023-01-05T23:51:17.620Z,101522.13
2023-01-05T23:56:23.481Z,101536.97
